Time;durP1;ratioP1;P1;durP2;ratioP2;P2;SDS_P1;SDS_P2;PMS_P1;PMS_P2;Temp;Humidity;BMP_temperature;BMP_pressure;BME280_temperature;BME280_humidity;BME280_pressure;Samples;Min_cycle;Max_cycle;Signal;HPM_P1;HPM_P2
2021/01/01 00:00:44;;;;;;;33.60;22.03;;;;;;;;;;5105303;28;20447;-68
2021/01/01 00:03:11;;;;;;;30.47;20.00;;;;;;;;;;5097080;28;20451;-68
2021/01/01 00:05:38;;;;;;;30.60;20.20;;;;;;;;;;5099191;28;20464;-68
2021/01/01 00:08:04;;;;;;;21.93;17.70;;;;;;;;;;5107442;28;20459;-68
2021/01/01 00:10:32;;;;;;;26.73;18.10;;;;;;;;;;5106549;28;20448;-69
2021/01/01 00:12:59;;;;;;;24.70;16.53;;;;;;;;;;5105676;28;20479;-68
2021/01/01 00:15:26;;;;;;;23.53;17.03;;;;;;;;;;5109627;27;20443;-68
2021/01/01 00:17:52;;;;;;;29.33;17.83;;;;;;;;;;5110285;28;20458;-67
2021/01/01 00:20:19;;;;;;;22.87;17.00;;;;;;;;;;5110674;28;20452;-68
2021/01/01 00:22:46;;;;;;;26.73;18.87;;;;;;;;;;5100300;28;20895;-68
2021/01/01 00:25:12;;;;;;;23.20;17.80;;;;;;;;;;5101898;28;20515;-68
2021/01/01 00:27:40;;;;;;;25.57;19.73;;;;;;;;;;5105388;28;20473;-68
2021/01/01 00:30:08;;;;;;;31.00;22.47;;;;;;;;;;5099087;28;20480;-68
2021/01/01 00:32:34;;;;;;;33.83;19.43;;;;;;;;;;5100835;28;20542;-68
2021/01/01 00:35:01;;;;;;;30.53;21.17;;;;;;;;;;5099049;28;20955;-68
2021/01/01 00:37:28;;;;;;;29.07;19.13;;;;;;;;;;5101553;28;20478;-68
2021/01/01 00:39:54;;;;;;;30.50;19.90;;;;;;;;;;5107796;28;20439;-68
2021/01/01 00:42:21;;;;;;;32.67;21.37;;;;;;;;;;5091965;28;20452;-68
2021/01/01 00:44:48;;;;;;;30.83;21.97;;;;;;;;;;5106305;28;20451;-68
2021/01/01 00:47:15;;;;;;;29.33;21.17;;;;;;;;;;5105929;28;20566;-68
2021/01/01 00:49:42;;;;;;;31.93;21.17;;;;;;;;;;5102768;28;20454;-68
2021/01/01 00:52:08;;;;;;;31.77;22.63;;;;;;;;;;5104338;28;20482;-68
2021/01/01 00:54:35;;;;;;;32.33;22.50;;;;;;;;;;5103750;28;20462;-68
2021/01/01 00:57:01;;;;;;;35.73;24.80;;;;;;;;;;5097608;28;20977;-68
2021/01/01 00:59:28;;;;;;;36.60;23.90;;;;;;;;;;5094427;28;20951;-68
2021/01/01 01:01:56;;;;;;;31.67;22.70;;;;;;;;;;5101093;28;20452;-68
2021/01/01 01:04:22;;;;;;;35.67;21.60;;;;;;;;;;5103042;28;20469;-68
2021/01/01 01:06:49;;;;;;;37.03;23.83;;;;;;;;;;5109183;28;20486;-68
2021/01/01 01:09:15;;;;;;;31.97;21.97;;;;;;;;;;5105540;28;21032;-68
2021/01/01 01:11:42;;;;;;;30.97;22.07;;;;;;;;;;5104641;28;21011;-68
2021/01/01 01:14:09;;;;;;;35.67;23.60;;;;;;;;;;5093531;28;20513;-68
2021/01/01 01:16:36;;;;;;;39.20;25.07;;;;;;;;;;5093860;28;20464;-68
2021/01/01 01:19:03;;;;;;;36.07;23.93;;;;;;;;;;5099370;28;20487;-68
2021/01/01 01:21:30;;;;;;;40.20;23.47;;;;;;;;;;5106669;28;20450;-68
2021/01/01 01:23:57;;;;;;;38.23;22.33;;;;;;;;;;5098666;28;22320;-68
2021/01/01 01:26:24;;;;;;;36.30;24.23;;;;;;;;;;5105347;28;20463;-68
2021/01/01 01:28:50;;;;;;;34.50;24.20;;;;;;;;;;5099979;28;20471;-68
2021/01/01 01:31:17;;;;;;;34.80;24.17;;;;;;;;;;5110530;28;20447;-68
2021/01/01 01:33:44;;;;;;;32.70;21.20;;;;;;;;;;5104340;27;20466;-68
2021/01/01 01:36:11;;;;;;;38.07;26.30;;;;;;;;;;5106540;28;20475;-68
2021/01/01 01:38:38;;;;;;;31.97;22.37;;;;;;;;;;5097284;28;20447;-68
2021/01/01 01:41:05;;;;;;;36.57;24.00;;;;;;;;;;5107223;28;20451;-68
2021/01/01 01:43:31;;;;;;;37.70;25.97;;;;;;;;;;5102473;28;20448;-68
2021/01/01 01:45:58;;;;;;;37.37;22.57;;;;;;;;;;5104359;28;20463;-68
2021/01/01 01:48:26;;;;;;;34.90;24.30;;;;;;;;;;5093959;28;20463;-68
2021/01/01 01:50:53;;;;;;;34.17;23.97;;;;;;;;;;5110453;28;20523;-68
2021/01/01 01:53:20;;;;;;;31.67;22.10;;;;;;;;;;5107996;28;20476;-68
2021/01/01 01:55:47;;;;;;;29.20;19.87;;;;;;;;;;5110737;28;20475;-68
2021/01/01 01:58:14;;;;;;;29.40;21.00;;;;;;;;;;5104164;28;20463;-68
2021/01/01 02:01:00;;;;;;;32.80;19.47;;;;;;;;;;5103981;28;20448;-68
2021/01/01 02:03:28;;;;;;;25.60;18.43;;;;;;;;;;5111263;28;20442;-68
2021/01/01 02:05:55;;;;;;;32.43;19.90;;;;;;;;;;5103342;28;20482;-68
2021/01/01 02:08:22;;;;;;;30.43;19.37;;;;;;;;;;5101783;28;20444;-68
2021/01/01 02:10:51;;;;;;;29.67;20.80;;;;;;;;;;5104310;28;20924;-68
2021/01/01 02:13:17;;;;;;;30.00;21.60;;;;;;;;;;5108024;28;20480;-68
2021/01/01 02:15:44;;;;;;;34.00;21.40;;;;;;;;;;5105057;28;20525;-68
2021/01/01 02:18:11;;;;;;;28.87;20.27;;;;;;;;;;5102458;28;20533;-68
2021/01/01 02:20:37;;;;;;;28.37;21.10;;;;;;;;;;5098565;28;20443;-68
2021/01/01 02:23:05;;;;;;;30.30;19.33;;;;;;;;;;5107689;28;20446;-68
2021/01/01 02:25:32;;;;;;;34.73;21.53;;;;;;;;;;5099904;28;20447;-68
2021/01/01 02:27:59;;;;;;;35.53;21.40;;;;;;;;;;5096172;28;20468;-68
2021/01/01 02:30:25;;;;;;;33.27;20.13;;;;;;;;;;5103679;28;20473;-68
2021/01/01 02:32:52;;;;;;;27.80;20.53;;;;;;;;;;5107437;28;20533;-68
2021/01/01 02:35:19;;;;;;;30.57;20.80;;;;;;;;;;5103439;28;21034;-68
2021/01/01 02:37:45;;;;;;;32.03;20.90;;;;;;;;;;5105918;28;20452;-68
2021/01/01 02:40:13;;;;;;;28.17;18.80;;;;;;;;;;5101892;28;20444;-68
2021/01/01 02:42:40;;;;;;;31.00;19.80;;;;;;;;;;5105062;28;20828;-68
2021/01/01 02:45:07;;;;;;;26.20;18.83;;;;;;;;;;5103093;28;20447;-69
2021/01/01 02:47:34;;;;;;;33.70;20.40;;;;;;;;;;5108486;28;20523;-69
2021/01/01 02:50:00;;;;;;;29.63;19.10;;;;;;;;;;5111046;28;20447;-69
2021/01/01 02:52:27;;;;;;;29.80;19.97;;;;;;;;;;5099045;28;20480;-68
2021/01/01 02:54:54;;;;;;;33.47;22.57;;;;;;;;;;5103832;28;20454;-68
2021/01/01 02:57:21;;;;;;;35.47;22.90;;;;;;;;;;5103597;28;20472;-68
2021/01/01 02:59:48;;;;;;;37.83;23.80;;;;;;;;;;5098000;28;20833;-68
2021/01/01 03:02:14;;;;;;;37.47;24.90;;;;;;;;;;5098532;28;20455;-68
2021/01/01 03:04:41;;;;;;;36.67;24.07;;;;;;;;;;5107650;28;20454;-68
2021/01/01 03:07:07;;;;;;;41.00;26.07;;;;;;;;;;5111530;28;20459;-68
2021/01/01 03:09:34;;;;;;;44.53;26.10;;;;;;;;;;5106786;28;20520;-68
2021/01/01 03:12:01;;;;;;;43.37;26.80;;;;;;;;;;5101632;28;20917;-68
2021/01/01 03:14:28;;;;;;;46.00;28.40;;;;;;;;;;5102097;28;20543;-68
2021/01/01 03:16:55;;;;;;;38.63;27.93;;;;;;;;;;5105445;28;20558;-68
2021/01/01 03:19:21;;;;;;;42.60;26.70;;;;;;;;;;5110345;28;20444;-68
2021/01/01 03:21:48;;;;;;;44.97;27.70;;;;;;;;;;5097216;28;20447;-68
2021/01/01 03:24:14;;;;;;;40.83;25.47;;;;;;;;;;5107589;28;20443;-68
2021/01/01 03:26:41;;;;;;;39.17;25.47;;;;;;;;;;5100760;28;21026;-68
2021/01/01 03:29:08;;;;;;;36.73;26.07;;;;;;;;;;5102862;28;20509;-68
2021/01/01 03:31:35;;;;;;;43.37;25.43;;;;;;;;;;5095770;28;20455;-68
2021/01/01 03:34:02;;;;;;;32.90;21.83;;;;;;;;;;5104295;28;21017;-68
2021/01/01 03:36:28;;;;;;;36.70;25.10;;;;;;;;;;5100931;28;21070;-68
2021/01/01 03:38:56;;;;;;;40.50;25.60;;;;;;;;;;5106324;28;20443;-68
2021/01/01 03:41:22;;;;;;;33.60;21.10;;;;;;;;;;5108226;28;20455;-68
2021/01/01 03:43:49;;;;;;;37.00;23.43;;;;;;;;;;5100333;28;20443;-68
2021/01/01 03:46:16;;;;;;;38.47;23.80;;;;;;;;;;5106722;28;20887;-68
2021/01/01 03:48:43;;;;;;;38.80;24.00;;;;;;;;;;5100067;28;20451;-68
2021/01/01 03:51:10;;;;;;;40.47;26.50;;;;;;;;;;5102530;28;20470;-68
2021/01/01 03:53:37;;;;;;;33.37;23.87;;;;;;;;;;5105667;28;20475;-68
2021/01/01 03:56:04;;;;;;;34.60;24.03;;;;;;;;;;5100118;28;20483;-68
2021/01/01 03:58:30;;;;;;;36.50;23.43;;;;;;;;;;5102834;28;20450;-68
2021/01/01 04:00:58;;;;;;;32.57;21.87;;;;;;;;;;5097241;28;20458;-68
2021/01/01 04:03:25;;;;;;;34.83;22.90;;;;;;;;;;5105564;28;20967;-68
2021/01/01 04:05:52;;;;;;;36.10;21.83;;;;;;;;;;5110071;28;20463;-68
2021/01/01 04:08:19;;;;;;;33.07;21.63;;;;;;;;;;5106028;28;20459;-69
2021/01/01 04:10:46;;;;;;;32.53;22.07;;;;;;;;;;5109803;28;20446;-68
2021/01/01 04:13:13;;;;;;;35.03;23.63;;;;;;;;;;5103874;28;20476;-68
2021/01/01 04:15:40;;;;;;;31.23;20.30;;;;;;;;;;5106536;28;20479;-68
2021/01/01 04:18:06;;;;;;;31.43;21.90;;;;;;;;;;5103746;28;20504;-68
2021/01/01 04:20:33;;;;;;;32.60;20.63;;;;;;;;;;5095950;28;20466;-68
2021/01/01 04:23:00;;;;;;;35.20;21.93;;;;;;;;;;5097695;28;20538;-68
2021/01/01 04:25:27;;;;;;;31.47;18.70;;;;;;;;;;5105659;28;20465;-68
2021/01/01 04:27:53;;;;;;;32.70;20.13;;;;;;;;;;5107534;28;20994;-68
2021/01/01 04:30:22;;;;;;;26.90;19.70;;;;;;;;;;5108617;28;20458;-69
2021/01/01 04:32:48;;;;;;;31.00;19.00;;;;;;;;;;5097041;28;20505;-69
2021/01/01 04:35:15;;;;;;;26.37;17.20;;;;;;;;;;5105923;28;20442;-69
2021/01/01 04:37:42;;;;;;;31.43;20.80;;;;;;;;;;5105856;28;20467;-69
2021/01/01 04:40:09;;;;;;;29.60;20.37;;;;;;;;;;5099475;28;21142;-69
2021/01/01 04:42:36;;;;;;;28.23;18.30;;;;;;;;;;5107233;28;20438;-69
2021/01/01 04:45:03;;;;;;;28.67;19.00;;;;;;;;;;5102024;28;20451;-69
2021/01/01 04:47:31;;;;;;;25.23;17.40;;;;;;;;;;5104914;28;20467;-69
2021/01/01 04:49:59;;;;;;;28.97;18.13;;;;;;;;;;5108740;28;20444;-69
2021/01/01 04:52:26;;;;;;;29.40;17.50;;;;;;;;;;5108957;28;21402;-69
2021/01/01 04:54:54;;;;;;;29.77;19.30;;;;;;;;;;5105626;28;20454;-69
2021/01/01 04:57:22;;;;;;;32.40;20.20;;;;;;;;;;5103060;28;20471;-69
2021/01/01 04:59:48;;;;;;;32.87;20.93;;;;;;;;;;5103567;28;20464;-69
2021/01/01 05:02:15;;;;;;;35.23;22.63;;;;;;;;;;5099478;28;20456;-69
2021/01/01 05:04:45;;;;;;;35.97;21.43;;;;;;;;;;5101592;28;20808;-69
2021/01/01 05:07:15;;;;;;;32.50;21.37;;;;;;;;;;5096011;28;20975;-69
2021/01/01 05:09:43;;;;;;;32.93;19.80;;;;;;;;;;5104411;28;20849;-69
2021/01/01 05:12:10;;;;;;;36.40;21.80;;;;;;;;;;5097199;28;20480;-69
2021/01/01 05:14:38;;;;;;;34.03;22.00;;;;;;;;;;5105108;28;22291;-69
2021/01/01 05:17:05;;;;;;;37.50;22.70;;;;;;;;;;5106911;28;20468;-68
2021/01/01 05:19:41;;;;;;;33.87;24.70;;;;;;;;;;5104056;28;20454;-69
2021/01/01 05:22:09;;;;;;;44.90;26.60;;;;;;;;;;5108309;28;20965;-69
2021/01/01 05:24:40;;;;;;;43.07;25.40;;;;;;;;;;5109480;28;20532;-69
2021/01/01 05:27:13;;;;;;;43.57;24.90;;;;;;;;;;5111698;28;20470;-69
2021/01/01 05:29:43;;;;;;;51.17;25.30;;;;;;;;;;5104395;28;20466;-69
2021/01/01 05:32:09;;;;;;;40.40;23.70;;;;;;;;;;5108409;28;20554;-69
2021/01/01 05:34:45;;;;;;;36.30;23.13;;;;;;;;;;5108188;28;21008;-69
2021/01/01 05:37:12;;;;;;;45.30;22.63;;;;;;;;;;5111946;28;20876;-69
2021/01/01 05:39:38;;;;;;;50.93;22.93;;;;;;;;;;5109961;28;20516;-69
2021/01/01 05:42:05;;;;;;;36.87;22.17;;;;;;;;;;5103760;28;20453;-69
2021/01/01 05:44:33;;;;;;;35.07;20.87;;;;;;;;;;5107189;28;20455;-69
2021/01/01 05:47:01;;;;;;;38.23;21.77;;;;;;;;;;5104797;28;20877;-69
2021/01/01 05:49:29;;;;;;;34.30;20.87;;;;;;;;;;5105860;28;20945;-69
2021/01/01 05:52:05;;;;;;;46.03;23.50;;;;;;;;;;5104548;27;20493;-69
2021/01/01 05:56:34;;;;;;;32.10;21.07;;;;;;;;;;5101859;27;20575;-67
2021/01/01 05:59:01;;;;;;;39.47;22.57;;;;;;;;;;5089952;28;20469;-67
2021/01/01 06:01:29;;;;;;;39.10;22.80;;;;;;;;;;5077599;28;20451;-67
2021/01/01 06:03:55;;;;;;;34.87;21.30;;;;;;;;;;5099291;28;20498;-67
2021/01/01 06:06:22;;;;;;;35.80;19.60;;;;;;;;;;5088467;28;20854;-67
2021/01/01 06:08:50;;;;;;;35.03;18.30;;;;;;;;;;5080257;28;20479;-66
2021/01/01 06:11:17;;;;;;;32.27;20.03;;;;;;;;;;5083037;28;20471;-67
2021/01/01 06:13:47;;;;;;;32.03;19.23;;;;;;;;;;5094119;28;20451;-67
2021/01/01 06:16:16;;;;;;;30.40;19.50;;;;;;;;;;5085157;28;20996;-67
2021/01/01 06:18:48;;;;;;;27.37;18.30;;;;;;;;;;5087499;28;20827;-67
2021/01/01 06:21:32;;;;;;;28.87;18.47;;;;;;;;;;5073296;28;20506;-67
2021/01/01 06:23:58;;;;;;;32.67;19.60;;;;;;;;;;5099059;28;20826;-67
2021/01/01 06:26:25;;;;;;;34.20;19.60;;;;;;;;;;5090483;28;20459;-67
2021/01/01 06:28:52;;;;;;;34.90;20.13;;;;;;;;;;5081681;28;20526;-67
2021/01/01 06:31:19;;;;;;;34.60;21.37;;;;;;;;;;5092755;28;20456;-67
2021/01/01 06:33:46;;;;;;;40.73;21.37;;;;;;;;;;5092006;28;20986;-67
2021/01/01 06:36:35;;;;;;;31.93;20.17;;;;;;;;;;5078806;28;20488;-67
2021/01/01 06:39:02;;;;;;;33.93;19.83;;;;;;;;;;5090519;28;20450;-67
2021/01/01 06:41:44;;;;;;;38.80;21.70;;;;;;;;;;5085498;28;21003;-67
2021/01/01 06:44:12;;;;;;;42.17;23.77;;;;;;;;;;5084065;28;20448;-67
2021/01/01 06:46:39;;;;;;;39.67;21.57;;;;;;;;;;5093067;28;20471;-68
2021/01/01 06:49:06;;;;;;;37.37;20.60;;;;;;;;;;5089514;28;20444;-69
2021/01/01 06:51:33;;;;;;;37.10;21.33;;;;;;;;;;5083808;28;20460;-69
2021/01/01 06:54:11;;;;;;;36.17;20.80;;;;;;;;;;5082239;28;20452;-69
2021/01/01 06:56:38;;;;;;;35.13;21.20;;;;;;;;;;5088914;28;20483;-69
2021/01/01 06:59:08;;;;;;;34.47;20.07;;;;;;;;;;5097615;28;20818;-69
2021/01/01 07:01:40;;;;;;;31.23;18.53;;;;;;;;;;5096447;28;20462;-69
2021/01/01 07:04:07;;;;;;;25.43;17.87;;;;;;;;;;5089015;28;20444;-69
2021/01/01 07:06:38;;;;;;;28.60;16.90;;;;;;;;;;5069857;28;20484;-69
2021/01/01 07:09:05;;;;;;;28.53;17.27;;;;;;;;;;5077735;28;20454;-69
2021/01/01 07:11:33;;;;;;;23.00;15.83;;;;;;;;;;5071648;28;20452;-69
2021/01/01 07:14:05;;;;;;;29.17;18.37;;;;;;;;;;5083091;28;20438;-69
2021/01/01 07:16:33;;;;;;;30.70;18.93;;;;;;;;;;5074566;28;20493;-68
2021/01/01 07:19:01;;;;;;;29.87;18.30;;;;;;;;;;5077456;28;20453;-68
2021/01/01 07:21:27;;;;;;;28.93;17.70;;;;;;;;;;5079059;28;20519;-69
2021/01/01 07:23:54;;;;;;;29.67;18.70;;;;;;;;;;5075640;28;20441;-69
2021/01/01 07:26:26;;;;;;;24.90;15.20;;;;;;;;;;5071546;28;20461;-69
2021/01/01 07:28:53;;;;;;;28.50;16.80;;;;;;;;;;5077258;28;20449;-69
2021/01/01 07:31:20;;;;;;;26.60;17.00;;;;;;;;;;5078404;28;20449;-69
2021/01/01 07:33:47;;;;;;;27.37;16.13;;;;;;;;;;5076572;28;20473;-69
2021/01/01 07:36:15;;;;;;;29.30;17.43;;;;;;;;;;5076239;28;20480;-70
2021/01/01 07:38:42;;;;;;;28.93;16.83;;;;;;;;;;5070403;28;20480;-70
2021/01/01 07:41:09;;;;;;;25.60;16.30;;;;;;;;;;5073156;28;20456;-70
2021/01/01 07:43:36;;;;;;;26.70;15.33;;;;;;;;;;5080229;28;20437;-70
2021/01/01 07:46:03;;;;;;;29.00;16.83;;;;;;;;;;5071906;28;20953;-70
2021/01/01 07:48:30;;;;;;;28.23;15.83;;;;;;;;;;5087884;28;20449;-70
2021/01/01 07:50:58;;;;;;;26.10;15.70;;;;;;;;;;5081048;28;20862;-70
2021/01/01 07:53:26;;;;;;;22.87;14.30;;;;;;;;;;5079465;28;20814;-69
2021/01/01 07:55:53;;;;;;;29.17;16.30;;;;;;;;;;5075158;28;20553;-69
2021/01/01 07:58:19;;;;;;;24.70;16.03;;;;;;;;;;5089594;28;20454;-70
2021/01/01 08:00:46;;;;;;;31.87;17.60;;;;;;;;;;5067898;28;20544;-70
2021/01/01 08:03:14;;;;;;;27.80;18.50;;;;;;;;;;5082616;28;20449;-70
2021/01/01 08:05:44;;;;;;;31.40;18.70;;;;;;;;;;5074474;28;20469;-70
2021/01/01 08:08:14;;;;;;;33.57;19.33;;;;;;;;;;5074277;28;20862;-71
2021/01/01 08:10:42;;;;;;;29.07;17.97;;;;;;;;;;5069456;28;20960;-69
2021/01/01 08:13:15;;;;;;;34.43;18.17;;;;;;;;;;5070347;28;20456;-69
2021/01/01 08:15:42;;;;;;;37.37;21.73;;;;;;;;;;5068696;28;20488;-69
2021/01/01 08:18:10;;;;;;;32.00;19.10;;;;;;;;;;5074336;28;20448;-70
2021/01/01 08:20:37;;;;;;;30.33;19.20;;;;;;;;;;5083519;28;20482;-70
2021/01/01 08:23:06;;;;;;;30.43;18.50;;;;;;;;;;5069611;28;20461;-67
2021/01/01 08:25:32;;;;;;;27.30;17.80;;;;;;;;;;5078385;28;20445;-68
2021/01/01 08:28:00;;;;;;;27.90;17.07;;;;;;;;;;5079684;28;20505;-68
2021/01/01 08:30:27;;;;;;;27.37;17.70;;;;;;;;;;5077178;28;20958;-67
2021/01/01 08:32:55;;;;;;;32.50;19.67;;;;;;;;;;5073110;28;20453;-69
2021/01/01 08:35:22;;;;;;;30.43;15.27;;;;;;;;;;5067908;28;20488;-68
2021/01/01 08:37:48;;;;;;;25.80;15.33;;;;;;;;;;5074206;28;20449;-69
2021/01/01 08:40:15;;;;;;;25.13;16.83;;;;;;;;;;5070785;28;20457;-68
2021/01/01 08:43:28;;;;;;;24.50;18.63;;;;;;;;;;5130368;27;20550;-67
2021/01/01 08:45:54;;;;;;;30.37;18.13;;;;;;;;;;5128766;28;20477;-68
2021/01/01 08:48:21;;;;;;;32.37;17.47;;;;;;;;;;5119196;28;20450;-66
2021/01/01 08:50:48;;;;;;;27.70;16.57;;;;;;;;;;5114420;28;20451;-66
2021/01/01 08:53:15;;;;;;;22.40;15.23;;;;;;;;;;5124264;27;20453;-69
2021/01/01 08:55:42;;;;;;;26.63;17.17;;;;;;;;;;5132480;27;20483;-67
2021/01/01 08:58:09;;;;;;;26.17;17.90;;;;;;;;;;5125673;28;20454;-66
2021/01/01 09:00:37;;;;;;;25.33;17.67;;;;;;;;;;5117017;27;20825;-69
2021/01/01 09:03:04;;;;;;;29.23;17.40;;;;;;;;;;5119634;27;20473;-70
2021/01/01 09:05:31;;;;;;;27.23;17.23;;;;;;;;;;5117915;27;20446;-67
2021/01/01 09:08:07;;;;;;;29.57;17.37;;;;;;;;;;5113264;27;20451;-66
2021/01/01 09:10:34;;;;;;;24.43;15.87;;;;;;;;;;5121809;28;20455;-67
2021/01/01 09:13:11;;;;;;;22.23;15.20;;;;;;;;;;5117358;28;20453;-67
2021/01/01 09:15:39;;;;;;;31.47;16.90;;;;;;;;;;5126322;27;20482;-67
2021/01/01 09:18:06;;;;;;;28.33;17.73;;;;;;;;;;5112762;27;20456;-69
2021/01/01 09:20:33;;;;;;;27.03;16.57;;;;;;;;;;5123260;27;20457;-69
2021/01/01 09:23:00;;;;;;;25.30;16.43;;;;;;;;;;5125402;27;20485;-67
2021/01/01 09:25:27;;;;;;;26.80;16.47;;;;;;;;;;5121248;27;20818;-66
2021/01/01 09:27:55;;;;;;;23.83;16.03;;;;;;;;;;5120667;27;20500;-67
2021/01/01 09:30:23;;;;;;;24.60;16.80;;;;;;;;;;5133449;27;20541;-68
2021/01/01 09:32:51;;;;;;;25.57;18.23;;;;;;;;;;5127333;27;20458;-67
2021/01/01 09:35:18;;;;;;;26.47;16.60;;;;;;;;;;5123372;27;20442;-67
2021/01/01 09:37:48;;;;;;;26.97;17.10;;;;;;;;;;5120785;27;20994;-68
2021/01/01 09:40:15;;;;;;;24.63;16.40;;;;;;;;;;5119875;28;20435;-68
2021/01/01 09:45:15;;;;;;;23.97;15.67;;;;;;;;;;5115187;27;20554;-69
2021/01/01 09:47:58;;;;;;;27.17;16.43;;;;;;;;;;5128755;27;20572;-68
2021/01/01 09:50:25;;;;;;;26.13;17.70;;;;;;;;;;5120297;27;20451;-68
2021/01/01 09:52:52;;;;;;;24.10;16.97;;;;;;;;;;5128190;27;20443;-68
2021/01/01 09:55:19;;;;;;;28.40;16.77;;;;;;;;;;5115232;27;20459;-67
2021/01/01 10:01:24;;;;;;;23.30;15.33;;;;;;;;;;5124213;27;20609;-66
2021/01/01 10:03:51;;;;;;;28.07;17.17;;;;;;;;;;5109709;27;20445;-67
2021/01/01 10:11:02;;;;;;;30.70;17.27;;;;;;;;;;5124422;27;20585;-69
2021/01/01 10:13:28;;;;;;;29.20;19.00;;;;;;;;;;5120617;28;20488;-69
2021/01/01 10:15:55;;;;;;;25.30;17.27;;;;;;;;;;5117774;27;21064;-69
2021/01/01 10:18:22;;;;;;;24.50;17.30;;;;;;;;;;5102536;28;20505;-69
2021/01/01 10:20:49;;;;;;;28.37;17.60;;;;;;;;;;5106384;28;20452;-70
2021/01/01 10:23:15;;;;;;;26.87;18.70;;;;;;;;;;5103824;28;20512;-69
2021/01/01 10:25:42;;;;;;;30.77;18.47;;;;;;;;;;5105056;28;20478;-69
2021/01/01 10:28:10;;;;;;;29.23;17.67;;;;;;;;;;5109288;28;20498;-70
2021/01/01 10:30:36;;;;;;;30.17;18.83;;;;;;;;;;5106629;28;20482;-69
2021/01/01 10:33:03;;;;;;;28.57;17.87;;;;;;;;;;5108130;28;20443;-70
2021/01/01 10:35:29;;;;;;;26.37;17.77;;;;;;;;;;5107311;28;21018;-69
2021/01/01 10:37:56;;;;;;;29.40;19.20;;;;;;;;;;5105041;28;20447;-71
2021/01/01 10:40:22;;;;;;;25.83;17.80;;;;;;;;;;5096563;28;20940;-70
2021/01/01 10:42:49;;;;;;;30.50;20.03;;;;;;;;;;5104262;28;20443;-69
2021/01/01 10:45:17;;;;;;;30.43;19.30;;;;;;;;;;5105753;28;20439;-69
2021/01/01 10:47:43;;;;;;;28.00;19.07;;;;;;;;;;5107792;28;20467;-70
2021/01/01 10:50:10;;;;;;;29.60;18.90;;;;;;;;;;5105884;28;20483;-70
2021/01/01 10:52:37;;;;;;;25.23;17.40;;;;;;;;;;5111099;28;20451;-69
2021/01/01 10:55:04;;;;;;;28.63;18.07;;;;;;;;;;5111839;28;20446;-70
2021/01/01 10:57:30;;;;;;;25.17;17.87;;;;;;;;;;5106460;28;20501;-69
2021/01/01 10:59:57;;;;;;;28.53;19.10;;;;;;;;;;5099432;28;20457;-70
2021/01/01 11:02:24;;;;;;;31.60;17.77;;;;;;;;;;5105741;28;20443;-70
2021/01/01 11:04:51;;;;;;;28.40;18.10;;;;;;;;;;5101157;28;20460;-70
2021/01/01 11:07:18;;;;;;;28.93;18.93;;;;;;;;;;5103028;28;20471;-69
2021/01/01 11:09:44;;;;;;;27.70;19.60;;;;;;;;;;5113380;28;20548;-68
2021/01/01 11:12:11;;;;;;;28.20;19.00;;;;;;;;;;5107199;28;20443;-69
2021/01/01 11:14:55;;;;;;;31.97;18.80;;;;;;;;;;5109633;28;20448;-70
2021/01/01 12:21:14;;;;;;;9.03;7.40;;;;;;;;;;5092870;28;20463;-69
2021/01/01 12:23:44;;;;;;;11.37;6.63;;;;;;;;;;5097825;28;20447;-69
2021/01/01 12:26:12;;;;;;;12.17;7.63;;;;;;;;;;5106320;28;20800;-69
2021/01/01 12:28:39;;;;;;;10.60;7.47;;;;;;;;;;5086616;28;20458;-69
2021/01/01 12:31:06;;;;;;;14.30;7.10;;;;;;;;;;5095099;28;20480;-69
2021/01/01 12:33:33;;;;;;;12.03;6.27;;;;;;;;;;5097027;28;20455;-69
2021/01/01 12:35:59;;;;;;;11.00;6.90;;;;;;;;;;5091706;28;20460;-69
2021/01/01 12:38:26;;;;;;;13.20;8.57;;;;;;;;;;5087604;28;20468;-68
2021/01/01 12:40:52;;;;;;;10.40;6.90;;;;;;;;;;5089427;28;20448;-69
2021/01/01 12:43:20;;;;;;;8.43;5.90;;;;;;;;;;5099308;28;20447;-69
2021/01/01 12:45:47;;;;;;;11.00;6.60;;;;;;;;;;5100037;28;20812;-70
2021/01/01 12:48:14;;;;;;;10.87;6.67;;;;;;;;;;5099741;28;20446;-68
2021/01/01 12:50:40;;;;;;;10.90;6.73;;;;;;;;;;5092877;28;21095;-68
2021/01/01 12:53:07;;;;;;;10.13;6.33;;;;;;;;;;5103220;28;20468;-69
2021/01/01 12:55:33;;;;;;;12.67;7.20;;;;;;;;;;5089775;28;21057;-69
2021/01/01 12:58:03;;;;;;;11.80;7.37;;;;;;;;;;5094053;28;20443;-69
2021/01/01 13:00:31;;;;;;;12.17;7.50;;;;;;;;;;5105335;28;20428;-69
2021/01/01 13:02:57;;;;;;;10.07;7.50;;;;;;;;;;5089773;28;20514;-69
2021/01/01 13:05:24;;;;;;;15.87;8.83;;;;;;;;;;5092340;28;20450;-68
2021/01/01 13:07:51;;;;;;;12.23;7.70;;;;;;;;;;5092227;28;21031;-68
2021/01/01 13:10:17;;;;;;;11.77;7.13;;;;;;;;;;5090909;28;20483;-68
2021/01/01 13:12:44;;;;;;;15.00;7.80;;;;;;;;;;5091753;28;20976;-69
2021/01/01 13:15:11;;;;;;;13.23;8.27;;;;;;;;;;5088598;28;20466;-68
2021/01/01 13:17:38;;;;;;;13.43;8.00;;;;;;;;;;5095965;28;20841;-69
2021/01/01 13:20:07;;;;;;;10.80;7.50;;;;;;;;;;5084605;28;20433;-68
2021/01/01 13:22:33;;;;;;;17.23;9.60;;;;;;;;;;5087642;28;20508;-68
2021/01/01 13:25:00;;;;;;;16.83;8.53;;;;;;;;;;5079791;28;20457;-68
2021/01/01 13:27:26;;;;;;;13.70;7.97;;;;;;;;;;5071508;28;20465;-69
2021/01/01 13:29:53;;;;;;;12.70;7.87;;;;;;;;;;5090774;28;20476;-68
2021/01/01 13:32:20;;;;;;;10.70;6.33;;;;;;;;;;5091371;28;20474;-68
2021/01/01 13:34:47;;;;;;;10.70;6.80;;;;;;;;;;5091386;28;20448;-69
2021/01/01 13:37:14;;;;;;;10.70;7.20;;;;;;;;;;5090178;28;20468;-68
2021/01/01 13:39:41;;;;;;;10.70;7.83;;;;;;;;;;5091315;28;20435;-68
2021/01/01 13:42:11;;;;;;;10.60;7.90;;;;;;;;;;5091566;28;20444;-68
2021/01/01 13:44:37;;;;;;;8.40;6.53;;;;;;;;;;5090938;28;20460;-69
2021/01/01 13:47:04;;;;;;;10.67;6.80;;;;;;;;;;5089694;28;20464;-68
2021/01/01 13:49:30;;;;;;;9.93;6.63;;;;;;;;;;5090664;28;20483;-68
2021/01/01 13:52:01;;;;;;;9.13;6.93;;;;;;;;;;5090479;28;20440;-68
2021/01/01 13:54:27;;;;;;;8.30;7.20;;;;;;;;;;5092682;28;20832;-69
2021/01/01 13:56:54;;;;;;;10.60;7.60;;;;;;;;;;5095373;28;20468;-69
2021/01/01 13:59:21;;;;;;;12.10;7.07;;;;;;;;;;5082722;28;20433;-68
2021/01/01 14:01:47;;;;;;;11.97;7.73;;;;;;;;;;5085379;28;20799;-69
2021/01/01 14:04:14;;;;;;;10.10;7.33;;;;;;;;;;5085604;28;20460;-68
2021/01/01 14:06:40;;;;;;;8.70;6.50;;;;;;;;;;5088861;28;20464;-69
2021/01/01 14:09:08;;;;;;;10.70;7.50;;;;;;;;;;5085202;28;20447;-69
2021/01/01 14:11:34;;;;;;;9.47;7.43;;;;;;;;;;5089896;28;20444;-69
2021/01/01 14:14:01;;;;;;;12.83;7.50;;;;;;;;;;5088116;28;20444;-69
2021/01/01 14:16:28;;;;;;;12.63;7.40;;;;;;;;;;5091435;28;20456;-69
2021/01/01 14:18:54;;;;;;;14.43;8.97;;;;;;;;;;5098125;28;20450;-69
2021/01/01 14:21:27;;;;;;;11.63;7.63;;;;;;;;;;5089092;28;20444;-69
2021/01/01 14:23:54;;;;;;;13.00;9.00;;;;;;;;;;5083920;28;20455;-69
2021/01/01 14:26:21;;;;;;;10.17;7.97;;;;;;;;;;5097648;28;20464;-70
2021/01/01 14:28:48;;;;;;;12.43;9.47;;;;;;;;;;5099455;28;20492;-69
2021/01/01 14:31:14;;;;;;;11.40;8.50;;;;;;;;;;5098425;28;20862;-71
2021/01/01 14:33:41;;;;;;;10.30;8.10;;;;;;;;;;5092509;28;20454;-69
2021/01/01 14:36:08;;;;;;;11.17;8.00;;;;;;;;;;5095431;28;20983;-69
2021/01/01 14:38:34;;;;;;;10.53;8.07;;;;;;;;;;5086759;28;20440;-68
2021/01/01 14:41:01;;;;;;;10.73;8.20;;;;;;;;;;5089888;28;20510;-69
2021/01/01 14:43:28;;;;;;;11.33;8.90;;;;;;;;;;5098097;28;20517;-69
2021/01/01 14:45:55;;;;;;;13.10;9.50;;;;;;;;;;5085392;28;21004;-69
2021/01/01 14:48:21;;;;;;;16.33;10.60;;;;;;;;;;5090450;28;20455;-69
2021/01/01 14:50:48;;;;;;;18.50;12.83;;;;;;;;;;5101590;28;20526;-69
2021/01/01 14:53:14;;;;;;;16.70;11.53;;;;;;;;;;5098035;28;20448;-68
2021/01/01 14:55:41;;;;;;;15.97;11.10;;;;;;;;;;5076423;28;21003;-69
2021/01/01 14:58:08;;;;;;;13.10;9.80;;;;;;;;;;5081522;28;20449;-69
2021/01/01 15:00:35;;;;;;;11.70;7.77;;;;;;;;;;5084890;28;20913;-70
2021/01/01 15:03:02;;;;;;;14.27;10.03;;;;;;;;;;5089961;28;20462;-69
2021/01/01 15:05:28;;;;;;;13.20;8.53;;;;;;;;;;5091998;28;20839;-69
2021/01/01 15:07:55;;;;;;;13.77;9.50;;;;;;;;;;5102415;28;20954;-69
2021/01/01 15:10:22;;;;;;;15.63;10.90;;;;;;;;;;5097851;28;20486;-68
2021/01/01 15:12:48;;;;;;;11.27;8.80;;;;;;;;;;5096219;28;20447;-69
2021/01/01 15:15:15;;;;;;;11.63;8.07;;;;;;;;;;5091864;28;20459;-69
2021/01/01 15:17:42;;;;;;;12.67;8.83;;;;;;;;;;5093783;28;20463;-70
2021/01/01 15:20:09;;;;;;;10.77;8.20;;;;;;;;;;5094080;28;20447;-69
2021/01/01 15:22:36;;;;;;;10.90;8.47;;;;;;;;;;5093676;28;20448;-69
2021/01/01 15:25:03;;;;;;;8.77;7.60;;;;;;;;;;5095963;28;20455;-70
2021/01/01 15:27:29;;;;;;;11.50;8.40;;;;;;;;;;5099420;28;20589;-69
2021/01/01 15:29:56;;;;;;;9.03;7.13;;;;;;;;;;5099841;28;21064;-69
2021/01/01 15:32:22;;;;;;;12.23;8.67;;;;;;;;;;5097315;28;20444;-69
2021/01/01 15:34:50;;;;;;;14.80;9.30;;;;;;;;;;5095100;28;20455;-69
2021/01/01 15:37:16;;;;;;;14.87;9.37;;;;;;;;;;5102827;28;21054;-68
2021/01/01 15:39:43;;;;;;;15.07;10.00;;;;;;;;;;5104198;28;20447;-69